Flight Track Log - Related Links

Times and Time Zones

All times are in EDT time to prevent confusion due to time zone crossing. See the RPA3143 flight status page for this flight to view local times or setup timezone preferences in your user account.


Time Position Orientation Groundspeed Altitude Reporting Facility
EDT Latitude Longitude Course Direction KTS MPH feet Rate Location/Type
Wed 08:00:32 AM 38.9000 -77.0833 233° Southwest 180 207 2,100  Level Potomac TRACON
Wed 08:01:32 AM 38.9500 -77.1333 322° Northwest 245 282 3,500 1,947 Climbing Potomac TRACON
Wed 08:02:26 AM 38.9833 -77.1833 311° West 265 305 5,800 2,684 Climbing Potomac TRACON
Wed 08:03:26 AM 38.9667 -77.2667 256° West 277 319 8,600 2,200 Climbing Potomac TRACON
Wed 08:04:00 AM 38.4059 -77.5387 201° Southwest  Level FlightAware Approximate
Wed 08:04:26 AM 38.9000 -77.3000 201° Southwest 312 359 10,200  Level Potomac TRACON
Wed 08:05:00 AM 38.3369 -77.6274 233° Southwest  Level FlightAware Approximate
Wed 08:05:20 AM 38.8167 -77.3500 205° Southwest 341 392 11,500  Level Potomac TRACON
Wed 08:06:20 AM 38.7333 -77.4000 205° Southwest 352 405 13,400 1,789 Climbing Potomac TRACON
Wed 08:07:14 AM 38.6333 -77.4333 195° South 357 411 14,900 1,500 Climbing Potomac TRACON
Wed 08:08:12 AM 38.5586 -77.4819 207° Southwest 362 417 16,200 1,361 Climbing Washington Center
Wed 08:09:13 AM 38.4683 -77.5328 204° Southwest 379 436 17,600 1,311 Climbing Washington Center
Wed 08:10:11 AM 38.3775 -77.5939 208° Southwest 379 436 18,800 1,169 Climbing Washington Center
Wed 08:11:11 AM 38.3092 -77.7006 231° Southwest 379 436 19,900 1,180 Climbing Washington Center
Wed 08:12:13 AM 38.2281 -77.7908 221° Southwest 384 442 21,200 1,230 Climbing Washington Center
Wed 08:13:13 AM 38.1431 -77.8808 220° Southwest 392 451 22,400 1,109 Climbing Washington Center
Wed 08:14:12 AM 38.0558 -77.9706 219° Southwest 402 463 23,400 1,150 Climbing Washington Center
Wed 08:15:13 AM 37.9600 -78.0675 219° Southwest 407 468 24,700 1,059 Climbing Washington Center
Wed 08:16:11 AM 37.8728 -78.1567 219° Southwest 407 468 25,500 756 Climbing Washington Center
Wed 08:17:12 AM 37.7936 -78.2408 220° Southwest 412 474 26,200 836 Climbing Washington Center
Wed 08:18:13 AM 37.7017 -78.3372 220° Southwest 418 481 27,200 1,109 Climbing Washington Center
Wed 08:19:11 AM 37.5972 -78.4408 218° Southwest 430 495 28,400 1,100 Climbing Washington Center
Wed 08:20:13 AM 37.5053 -78.5344 219° Southwest 435 501 29,400 950 Climbing Washington Center
Wed 08:21:11 AM 37.4089 -78.6325 219° Southwest 440 506 30,300 857 Climbing Washington Center
Wed 08:22:12 AM 37.3125 -78.7281 218° Southwest 440 506 31,100 934 Climbing Washington Center
Wed 08:23:13 AM 37.2161 -78.8258 219° Southwest 440 506 32,200 1,017 Climbing Washington Center
Wed 08:24:10 AM 37.1283 -78.9106 218° Southwest 445 512 33,100 958 Climbing Washington Center
Wed 08:25:12 AM 37.0294 -79.0078 218° Southwest 445 512 34,100 829 Climbing Washington Center
Wed 08:26:13 AM 36.9372 -79.1025 219° Southwest 445 512 34,800 605 Climbing Washington Center
Wed 08:27:11 AM 36.8383 -79.1967 217° Southwest 445 512 35,300 610 Climbing Washington Center
Wed 08:28:11 AM 36.7328 -79.3033 219° Southwest 445 512 36,000 347 Climbing Washington Center
Wed 08:29:12 AM 36.6403 -79.3944 218° Southwest 445 512 36,000  Level Washington Center
Wed 08:30:55 AM 36.4708 -79.5594 218° Southwest 457 526 36,000  Level Atlanta Center
Wed 08:31:55 AM 36.3722 -79.6553 218° Southwest 452 520 36,000  Level Atlanta Center
Wed 08:32:55 AM 36.2753 -79.7508 218° Southwest 446 513 36,000  Level Atlanta Center
Wed 08:33:55 AM 36.1783 -79.8433 218° Southwest 446 513 36,000  Level Atlanta Center
Wed 08:34:55 AM 36.0922 -79.9428 223° Southwest 453 521 36,000  Level Atlanta Center
Wed 08:35:55 AM 35.9858 -80.0072 206° Southwest 447 514 36,000  Level Atlanta Center
Wed 08:36:55 AM 35.8750 -80.0614 202° Southwest 437 503 36,000  Level Atlanta Center
Wed 08:37:55 AM 35.7517 -80.1211 201° Southwest 437 503 36,000  Level Atlanta Center
Wed 08:38:55 AM 35.6411 -80.1828 204° Southwest 437 503 36,000  Level Atlanta Center
Wed 08:39:55 AM 35.5381 -80.2308 201° Southwest 443 510 36,000  Level Atlanta Center
Wed 08:40:55 AM 35.4211 -80.2897 202° Southwest 448 516 36,000  Level Atlanta Center
Wed 08:41:55 AM 35.3061 -80.3486 203° Southwest 453 521 36,000  Level Atlanta Center
Wed 08:42:55 AM 35.1908 -80.4044 202° Southwest 448 516 36,000  Level Atlanta Center
Wed 08:44:30 AM 34.9986 -80.4978 202° Southwest 458 527 36,000  Level Jacksonville Center
Wed 08:45:30 AM 34.8828 -80.5567 203° Southwest 451 519 36,000  Level Jacksonville Center
Wed 08:46:30 AM 34.7756 -80.6128 203° Southwest 445 512 36,000  Level Jacksonville Center
Wed 08:47:30 AM 34.6556 -80.6664 200° South 445 512 36,000  Level Jacksonville Center
Wed 08:48:30 AM 34.5500 -80.7222 204° Southwest 457 526 36,000  Level Jacksonville Center
Wed 08:49:30 AM 34.4383 -80.7753 201° Southwest 448 516 36,000  Level Jacksonville Center
Wed 08:50:30 AM 34.3203 -80.8308 201° Southwest 455 524 36,000  Level Jacksonville Center
Wed 08:51:30 AM 34.1983 -80.8917 202° Southwest 449 517 36,000  Level Jacksonville Center
Wed 08:52:30 AM 34.0844 -80.9469 202° Southwest 443 510 36,000  Level Jacksonville Center
Wed 08:53:30 AM 33.9703 -81.0019 202° Southwest 443 510 36,000  Level Jacksonville Center
Wed 08:54:30 AM 33.8522 -81.0519 199° South 450 518 36,000  Level Jacksonville Center
Wed 08:55:30 AM 33.7333 -81.0669 186° South 437 503 36,000  Level Jacksonville Center
Wed 08:56:30 AM 33.6147 -81.0744 183° South 429 494 36,000  Level Jacksonville Center
Wed 08:57:30 AM 33.4936 -81.0844 184° South 429 494 36,000  Level Jacksonville Center
Wed 08:58:30 AM 33.3769 -81.0967 185° South 429 494 36,000  Level Jacksonville Center
Wed 08:59:30 AM 33.2542 -81.1067 184° South 434 499 36,000  Level Jacksonville Center
Wed 09:00:30 AM 33.1372 -81.1139 183° South 434 499 36,000  Level Jacksonville Center
Wed 09:01:30 AM 33.0225 -81.1261 185° South 429 494 36,000  Level Jacksonville Center
Wed 09:02:30 AM 32.8997 -81.1358 184° South 429 494 36,000  Level Jacksonville Center
Wed 09:03:30 AM 32.7828 -81.1456 184° South 434 499 36,000  Level Jacksonville Center
Wed 09:04:30 AM 32.6661 -81.1603 186° South 421 484 36,000  Level Jacksonville Center
Wed 09:05:30 AM 32.5575 -81.1600 180° South 422 486 36,000  Level Jacksonville Center
Wed 09:06:30 AM 32.4281 -81.1600 180° South 427 491 36,000  Level Jacksonville Center
Wed 09:07:30 AM 32.3194 -81.1569 179° South 427 491 36,000  Level Jacksonville Center
Wed 09:08:30 AM 32.2025 -81.1519 178° South 427 491 36,000  Level Jacksonville Center
Wed 09:09:30 AM 32.0669 -81.1519 180° South 433 498 36,000  Level Jacksonville Center
Wed 09:10:30 AM 31.9458 -81.1494 179° South 441 507 36,000  Level Jacksonville Center
Wed 09:11:30 AM 31.8331 -81.1467 179° South 441 507 36,000  Level Jacksonville Center
Wed 09:12:30 AM 31.6972 -81.1467 180° South 435 501 36,000  Level Jacksonville Center
Wed 09:13:30 AM 31.5783 -81.1442 179° South 440 506 36,000  Level Jacksonville Center
Wed 09:14:30 AM 31.4675 -81.1436 180° South 440 506 36,000  Level Jacksonville Center
Wed 09:15:30 AM 31.3444 -81.1436 180° South 440 506 36,000  Level Jacksonville Center
Wed 09:16:30 AM 31.2128 -81.1411 179° South 440 506 36,000 -150 Level Jacksonville Center
Wed 09:17:30 AM 31.0939 -81.1386 179° South 440 506 35,700 -800 Descending Jacksonville Center
Wed 09:18:30 AM 30.9747 -81.1358 179° South 435 501 34,400 -850 Descending Jacksonville Center
Wed 09:19:30 AM 30.8558 -81.1358 180° South 435 501 34,000 -200 Descending Jacksonville Center
Wed 09:20:30 AM 30.7367 -81.1331 179° South 440 506 34,000  Level Jacksonville Center
Wed 09:21:30 AM 30.6156 -81.1306 179° South 440 506 34,000  Level Jacksonville Center
Wed 09:22:30 AM 30.5006 -81.1278 179° South 435 501 34,000  Level Jacksonville Center
Wed 09:23:30 AM 30.3794 -81.1275 180° South 430 495 34,000  Level Jacksonville Center
Wed 09:24:30 AM 30.2647 -81.1272 180° South 424 488 34,000 -250 Level Jacksonville Center
Wed 09:25:30 AM 30.1478 -81.1247 179° South 419 482 33,500 -1,400 Descending Jacksonville Center
Wed 09:26:30 AM 30.0267 -81.1244 180° South 424 488 31,200 -2,350 Descending Jacksonville Center
Wed 09:27:30 AM 29.9036 -81.1219 179° South 435 501 28,800 -2,350 Descending Jacksonville Center
Wed 09:28:30 AM 29.7844 -81.1217 180° South 435 501 26,500 -2,250 Descending Jacksonville Center
Wed 09:29:30 AM 29.6675 -81.1214 180° South 435 501 24,300 -2,200 Descending Jacksonville Center
Wed 09:30:30 AM 29.5547 -81.1186 179° South 423 487 22,100 -2,000 Descending Jacksonville Center
Wed 09:31:30 AM 29.4567 -81.1158 179° South 406 467 20,300 -5,050 Descending Jacksonville Center
Wed 09:32:30 AM 29.3500 -81.1081 176° South 395 455 12,000 -2,000 Descending Jacksonville Center
Wed 09:33:30 AM 29.2417 -81.1078 180° South 389 448 16,300 1,150 Climbing Jacksonville Center
Wed 09:34:30 AM 29.1369 -81.1000 176° South 384 442 14,300 -1,950 Descending Jacksonville Center
Wed 09:35:30 AM 29.0389 -81.0900 175° South 371 427 12,400 -1,100 Descending Jacksonville Center
Wed 09:36:30 AM 28.9406 -81.0847 177° South 365 420 12,100 -310 Descending Jacksonville Center
Wed 09:37:26 AM 28.8500 -81.1000 188° South 348 400 11,800 -776 Descending Orlando TRACON
Wed 09:38:26 AM 28.7500 -81.1333 196° South 298 343 10,600 -1,339 Descending Orlando TRACON
Wed 09:39:27 AM 28.6833 -81.1500 192° South 296 341 9,100 -843 Descending Orlando TRACON
Wed 09:40:27 AM 28.6000 -81.1667 190° South 239 275 8,900 -750 Descending Orlando TRACON
Wed 09:41:27 AM 28.5333 -81.1833 192° South 243 280 7,600 -1,238 Descending Orlando TRACON
Wed 09:42:33 AM 28.4667 -81.2000 192° South 232 267 6,300 -1,228 Descending Orlando TRACON
Wed 09:43:34 AM 28.4000 -81.2000 180° South 234 269 5,000 -843 Descending Orlando TRACON
Wed 09:44:34 AM 28.3333 -81.2000 180° South 228 262 4,600 -1,000 Descending Orlando TRACON
Wed 09:45:34 AM 28.2667 -81.2167 192° South 225 259 3,000 -1,289 Descending Orlando TRACON
Wed 09:46:35 AM 28.2667 -81.2667 270° West 226 260 2,000 -984 Descending Orlando TRACON

Login

Don't have an account? Register now (free) for customized features, flight alerts, and more!